Terminal Aerodrome Forecast
Issued by NWS Lake Charles, LA

Home | Current Version | Previous Version | Text Only | Print | Product List | Glossary On
Versions: 1 2 3 4 5 6 7 8 9 10 11 12 13
169
FTUS44 KLCH 260520
TAFLFT
TAF
KLFT 260520Z 2606/2706 00000KT P6SM SKC
      TEMPO 2610/2614 3SM BR
     FM261500 04004KT P6SM FEW025 SCT035
     FM261900 35005KT P6SM VCSH BKN040
     FM270100 VRB03KT P6SM FEW050 SCT250=

USA.gov is the U.S. government's official web portal to all federal, state and local government web resources and services.